createdAt,value
2023-05-16T00:01:08.762Z,11.34
2023-05-16T00:04:00.849Z,10.95
2023-05-16T00:06:46.117Z,11.15
2023-05-16T00:09:37.757Z,11.14
2023-05-16T00:12:22.827Z,11.15
2023-05-16T00:15:18.767Z,11.02
2023-05-16T00:18:03.779Z,11.13
2023-05-16T00:20:55.853Z,11.27
2023-05-16T00:23:40.723Z,11.22
2023-05-16T00:26:32.766Z,11.20
2023-05-16T00:29:17.572Z,11.10
2023-05-16T00:32:08.922Z,11.00
2023-05-16T00:34:54.214Z,10.99
2023-05-16T00:37:45.756Z,10.90
2023-05-16T00:40:31.249Z,10.97
2023-05-16T00:43:22.767Z,10.76
2023-05-16T00:46:13.877Z,11.04
2023-05-16T00:49:05.764Z,10.86
2023-05-16T00:51:51.778Z,10.86
2023-05-16T00:54:43.766Z,10.62
2023-05-16T00:57:29.396Z,10.72
2023-05-16T01:00:26.114Z,10.62
2023-05-16T01:03:11.864Z,10.76
2023-05-16T01:06:04.770Z,10.58
2023-05-16T01:08:49.786Z,10.53
2023-05-16T01:11:58.780Z,10.70
2023-05-16T01:15:02.791Z,10.42
2023-05-16T01:18:11.136Z,10.50
2023-05-16T01:21:07.788Z,10.68
2023-05-16T01:24:03.641Z,10.30
2023-05-16T01:26:56.777Z,10.47
2023-05-16T01:29:41.730Z,10.34
2023-05-16T01:32:32.853Z,10.12
2023-05-16T01:35:18.343Z,10.38
2023-05-16T01:38:30.784Z,10.28
2023-05-16T01:41:21.990Z,10.19
2023-05-16T01:44:24.858Z,10.18
2023-05-16T01:47:20.806Z,9.99
2023-05-16T01:50:11.047Z,9.92
2023-05-16T01:53:12.789Z,9.57
2023-05-16T01:56:07.786Z,9.57
2023-05-16T01:59:00.786Z,9.67
2023-05-16T02:01:46.122Z,9.80
2023-05-16T02:04:37.781Z,9.44
2023-05-16T02:07:29.776Z,9.90
2023-05-16T02:10:15.150Z,9.60
2023-05-16T02:13:06.782Z,9.60
2023-05-16T02:15:52.830Z,9.61
2023-05-16T02:18:45.849Z,9.49
2023-05-16T02:21:31.145Z,9.45
2023-05-16T02:24:22.809Z,9.30
2023-05-16T02:27:07.672Z,9.45
2023-05-16T02:29:58.790Z,9.50
2023-05-16T02:32:45.066Z,9.31
2023-05-16T02:35:36.785Z,9.42
2023-05-16T02:38:21.907Z,9.53
2023-05-16T02:41:13.779Z,9.40
2023-05-16T02:44:18.812Z,9.43
2023-05-16T02:47:10.788Z,9.27
2023-05-16T02:49:56.244Z,9.45
2023-05-16T02:52:47.788Z,9.51
2023-05-16T02:55:32.926Z,9.21
2023-05-16T02:58:24.803Z,9.29
2023-05-16T03:01:10.208Z,9.24
2023-05-16T03:04:01.971Z,9.38
2023-05-16T03:06:47.049Z,9.14
2023-05-16T03:09:38.835Z,9.02
2023-05-16T03:12:24.105Z,8.92
2023-05-16T03:15:15.828Z,8.84
2023-05-16T03:18:06.840Z,8.94
2023-05-16T03:20:59.786Z,8.94
2023-05-16T03:23:44.400Z,9.06
2023-05-16T03:26:35.809Z,9.07
2023-05-16T03:29:21.048Z,9.22
2023-05-16T03:32:12.826Z,8.99
2023-05-16T03:35:03.819Z,9.09
2023-05-16T03:37:48.992Z,8.98
2023-05-16T03:40:40.800Z,9.27
2023-05-16T03:43:45.813Z,8.93
2023-05-16T03:46:37.813Z,8.87
2023-05-16T03:49:28.244Z,8.68
2023-05-16T03:52:19.796Z,8.83
2023-05-16T03:55:12.819Z,8.99
2023-05-16T03:58:03.813Z,8.88
2023-05-16T04:00:48.724Z,8.78
2023-05-16T04:03:40.813Z,8.75
2023-05-16T04:06:25.733Z,8.96
2023-05-16T04:09:16.817Z,8.73
2023-05-16T04:12:02.377Z,8.71
2023-05-16T04:14:53.840Z,8.80
2023-05-16T04:17:46.906Z,8.64
2023-05-16T04:20:37.853Z,8.84
2023-05-16T04:23:28.814Z,8.67
2023-05-16T04:26:14.475Z,8.71
2023-05-16T04:29:05.820Z,8.87
2023-05-16T04:31:50.746Z,8.79
2023-05-16T04:34:43.854Z,9.01
2023-05-16T04:37:34.827Z,8.99
2023-05-16T04:40:19.544Z,8.93
2023-05-16T04:43:10.874Z,9.07
2023-05-16T04:46:08.846Z,9.01
2023-05-16T04:49:00.832Z,8.68
2023-05-16T04:51:53.831Z,8.93
2023-05-16T04:54:39.453Z,8.63
2023-05-16T04:57:30.816Z,9.12
2023-05-16T05:00:16.227Z,8.73
2023-05-16T05:03:07.876Z,8.92
2023-05-16T05:05:52.931Z,8.77
2023-05-16T05:08:44.824Z,9.08
2023-05-16T05:11:29.683Z,9.30
2023-05-16T05:14:21.081Z,9.03
2023-05-16T05:17:06.607Z,9.33
2023-05-16T05:19:57.839Z,9.04
2023-05-16T05:22:42.959Z,9.60
2023-05-16T05:25:37.076Z,10.01
2023-05-16T05:28:22.750Z,9.84
2023-05-16T05:31:14.852Z,9.29
2023-05-16T05:33:59.715Z,9.36
2023-05-16T05:36:51.820Z,9.59
2023-05-16T05:39:36.698Z,9.08
2023-05-16T05:42:27.819Z,9.32
2023-05-16T05:45:19.986Z,9.19
2023-05-16T05:48:11.857Z,9.10
2023-05-16T05:51:03.827Z,9.20
2023-05-16T05:53:49.091Z,8.79
2023-05-16T05:56:40.836Z,9.18
2023-05-16T05:59:25.960Z,9.08
2023-05-16T06:02:17.890Z,8.75
2023-05-16T06:05:02.905Z,8.73
2023-05-16T06:07:53.841Z,8.42
2023-05-16T06:10:38.637Z,8.70
2023-05-16T06:13:29.874Z,8.57
2023-05-16T06:16:15.060Z,8.58
2023-05-16T06:19:06.962Z,8.70
2023-05-16T06:21:52.162Z,8.43
2023-05-16T06:24:43.862Z,8.59
2023-05-16T06:27:34.840Z,8.46
2023-05-16T06:30:19.981Z,8.63
2023-05-16T06:33:11.855Z,8.72
2023-05-16T06:35:56.801Z,8.95
2023-05-16T06:38:47.864Z,8.91
2023-05-16T06:41:32.913Z,9.23
2023-05-16T06:44:30.904Z,9.17
2023-05-16T06:47:22.268Z,9.12
2023-05-16T06:50:14.914Z,9.22
2023-05-16T06:53:00.519Z,9.31
2023-05-16T06:55:51.883Z,9.45
2023-05-16T06:58:39.036Z,9.77
2023-05-16T07:01:32.248Z,10.09
2023-05-16T07:04:17.747Z,10.76
2023-05-16T07:07:08.894Z,10.42
2023-05-16T07:09:54.041Z,10.54
2023-05-16T07:12:47.901Z,10.58
2023-05-16T07:15:33.237Z,10.64
2023-05-16T07:18:24.911Z,10.68
2023-05-16T07:21:09.719Z,10.60
2023-05-16T07:24:00.935Z,10.28
2023-05-16T07:26:45.786Z,9.67
2023-05-16T07:29:36.930Z,10.12
2023-05-16T07:32:22.088Z,10.40
2023-05-16T07:35:13.896Z,10.61
2023-05-16T07:37:58.780Z,10.52
2023-05-16T07:40:49.895Z,11.21
2023-05-16T07:43:54.915Z,14.21
2023-05-16T07:46:46.954Z,14.23
2023-05-16T07:49:31.965Z,14.49
2023-05-16T07:52:23.912Z,12.63
2023-05-16T07:55:09.486Z,11.98
2023-05-16T07:58:00.917Z,13.21
2023-05-16T08:00:52.901Z,12.88
2023-05-16T08:03:38.041Z,13.85
2023-05-16T08:06:29.909Z,11.58
2023-05-16T08:09:14.766Z,11.91
2023-05-16T08:12:09.898Z,11.68
2023-05-16T08:14:55.239Z,11.15
2023-05-16T08:17:46.935Z,10.82
2023-05-16T08:20:31.680Z,12.58
2023-05-16T08:23:22.993Z,11.47
2023-05-16T08:26:07.973Z,12.98
2023-05-16T08:28:58.930Z,14.07
2023-05-16T08:31:43.874Z,16.14
2023-05-16T08:34:37.938Z,15.15
2023-05-16T08:37:29.931Z,16.18
2023-05-16T08:40:21.989Z,17.25
2023-05-16T08:43:07.363Z,16.55
2023-05-16T08:46:05.920Z,16.91
2023-05-16T08:49:05.947Z,17.99
2023-05-16T08:52:01.704Z,17.63
2023-05-16T08:54:55.272Z,16.75
2023-05-16T08:57:57.932Z,18.25
2023-05-16T09:00:43.823Z,18.72
2023-05-16T09:03:34.976Z,17.45
2023-05-16T09:06:20.122Z,17.58
2023-05-16T09:09:13.937Z,14.70
2023-05-16T09:12:05.942Z,13.62
2023-05-16T09:14:52.144Z,15.22
2023-05-16T09:17:47.241Z,14.13
2023-05-16T09:20:32.586Z,14.61
2023-05-16T09:23:30.951Z,13.80
2023-05-16T09:26:16.182Z,15.15
2023-05-16T09:29:08.945Z,14.11
2023-05-16T09:31:53.966Z,13.83
2023-05-16T09:34:51.969Z,14.37
2023-05-16T09:37:36.983Z,13.46
2023-05-16T09:40:31.968Z,12.87
2023-05-16T09:43:24.944Z,16.92
2023-05-16T09:46:20.096Z,17.66
2023-05-16T09:49:11.960Z,18.64
2023-05-16T09:52:07.977Z,16.69
2023-05-16T09:55:00.966Z,15.92
2023-05-16T09:57:52.941Z,17.27
2023-05-16T10:00:44.999Z,19.15
2023-05-16T10:03:37.149Z,15.06
2023-05-16T10:06:22.784Z,14.50
2023-05-16T10:09:18.972Z,13.74
2023-05-16T10:12:08.144Z,15.87
2023-05-16T10:14:59.966Z,18.12
2023-05-16T10:17:50.537Z,16.14
2023-05-16T10:20:42.972Z,14.35
2023-05-16T10:23:28.309Z,16.59
2023-05-16T10:26:23.102Z,15.23
2023-05-16T10:29:08.424Z,14.58
2023-05-16T10:32:00.037Z,16.55
2023-05-16T10:34:46.312Z,18.22
2023-05-16T10:37:38.981Z,19.31
2023-05-16T10:40:24.629Z,19.22
2023-05-16T10:43:15.988Z,17.55
2023-05-16T10:46:16.083Z,16.23
2023-05-16T10:49:25.989Z,19.35
2023-05-16T10:52:18.981Z,18.21
2023-05-16T10:55:04.807Z,18.34
2023-05-16T10:57:56.008Z,16.35
2023-05-16T11:00:41.191Z,18.78
2023-05-16T11:03:35.086Z,16.18
2023-05-16T11:06:25.109Z,14.66
2023-05-16T11:09:23.016Z,15.62
2023-05-16T11:12:09.598Z,16.75
2023-05-16T11:15:01.007Z,16.25
2023-05-16T11:17:46.430Z,16.57
2023-05-16T11:20:41.020Z,15.75
2023-05-16T11:23:26.202Z,16.01
2023-05-16T11:26:18.014Z,17.53
2023-05-16T11:29:04.532Z,19.07
2023-05-16T11:31:56.016Z,17.55
2023-05-16T11:34:41.880Z,17.26
2023-05-16T11:37:33.053Z,16.06
2023-05-16T11:40:18.123Z,15.57
2023-05-16T11:43:10.020Z,15.27
2023-05-16T11:46:01.308Z,15.16
2023-05-16T11:48:54.009Z,14.50
2023-05-16T11:51:43.336Z,14.17
2023-05-16T11:54:35.025Z,14.15
2023-05-16T11:57:21.575Z,14.25
2023-05-16T12:00:21.048Z,14.77
2023-05-16T12:03:13.287Z,15.11
2023-05-16T12:06:05.007Z,14.28
2023-05-16T12:08:51.445Z,14.49
2023-05-16T12:11:48.029Z,14.46
2023-05-16T12:14:33.426Z,14.41
2023-05-16T12:17:27.105Z,14.28
2023-05-16T12:20:14.257Z,14.64
2023-05-16T12:23:06.031Z,14.63
2023-05-16T12:26:00.021Z,15.28
2023-05-16T12:28:51.127Z,15.45
2023-05-16T12:31:38.645Z,15.34
2023-05-16T12:34:31.048Z,15.02
2023-05-16T12:37:15.985Z,14.82
2023-05-16T12:40:08.041Z,14.56
2023-05-16T12:42:53.962Z,15.31
2023-05-16T12:46:00.099Z,14.84
2023-05-16T12:48:51.084Z,14.88
2023-05-16T12:51:42.062Z,15.12
2023-05-16T12:54:26.917Z,14.70
2023-05-16T12:57:18.032Z,14.93
2023-05-16T13:00:03.571Z,14.15
2023-05-16T13:02:55.132Z,14.06
2023-05-16T13:05:40.951Z,14.13
2023-05-16T13:08:34.056Z,14.19
2023-05-16T13:11:19.103Z,14.37
2023-05-16T13:14:11.073Z,14.38
2023-05-16T13:16:56.198Z,14.10
2023-05-16T13:19:49.015Z,13.98
2023-05-16T13:22:34.345Z,14.63
2023-05-16T13:25:26.296Z,14.62
2023-05-16T13:28:11.462Z,14.86
2023-05-16T13:31:03.065Z,15.01
2023-05-16T13:33:48.868Z,15.16
2023-05-16T13:36:53.226Z,15.12
2023-05-16T13:39:46.059Z,15.02
2023-05-16T13:42:52.074Z,15.14
2023-05-16T13:45:44.126Z,14.66
2023-05-16T13:48:43.052Z,14.85
2023-05-16T13:51:27.864Z,14.80
2023-05-16T13:54:19.081Z,15.22
2023-05-16T13:57:05.011Z,14.77
2023-05-16T14:00:24.903Z,14.97
2023-05-16T14:03:08.085Z,14.83
2023-05-16T14:05:52.922Z,14.47
2023-05-16T14:08:45.091Z,14.98
2023-05-16T14:11:30.486Z,15.02
2023-05-16T14:14:22.100Z,15.40
2023-05-16T14:17:07.424Z,15.07
2023-05-16T14:20:00.087Z,15.26
2023-05-16T14:22:45.006Z,15.23
2023-05-16T14:25:37.173Z,15.86
2023-05-16T14:28:22.111Z,16.01
2023-05-16T14:31:13.088Z,16.36
2023-05-16T14:33:58.933Z,16.27
2023-05-16T14:36:50.061Z,16.12
2023-05-16T14:39:35.087Z,15.64
2023-05-16T14:42:27.085Z,15.28
2023-05-16T14:45:18.148Z,14.59
2023-05-16T14:48:16.156Z,14.70
2023-05-16T14:51:01.557Z,14.86
2023-05-16T14:53:54.080Z,15.01
2023-05-16T14:56:39.157Z,15.05
2023-05-16T14:59:30.086Z,14.87
2023-05-16T15:02:15.189Z,14.78
2023-05-16T15:05:07.181Z,14.88
2023-05-16T15:07:52.403Z,15.20
2023-05-16T15:10:44.060Z,15.43
2023-05-16T15:13:29.386Z,15.28
2023-05-16T15:16:21.119Z,15.22
2023-05-16T15:19:06.119Z,14.83
2023-05-16T15:21:58.062Z,15.22
2023-05-16T15:24:49.259Z,15.34
2023-05-16T15:27:34.476Z,15.12
2023-05-16T15:30:26.120Z,14.85
2023-05-16T15:33:11.338Z,14.49
2023-05-16T15:36:03.072Z,14.50
2023-05-16T15:38:48.053Z,14.47
2023-05-16T15:42:05.372Z,14.40
2023-05-16T15:44:51.099Z,14.41
2023-05-16T15:47:42.123Z,14.39
2023-05-16T15:50:34.113Z,14.48
2023-05-16T15:53:19.019Z,14.48
2023-05-16T15:56:11.088Z,14.27
2023-05-16T15:59:03.098Z,14.17
2023-05-16T16:01:54.125Z,13.99
2023-05-16T16:04:38.949Z,14.03
2023-05-16T16:07:31.076Z,13.86
2023-05-16T16:10:19.485Z,14.06
2023-05-16T16:13:12.113Z,14.11
2023-05-16T16:16:04.171Z,14.26
2023-05-16T16:18:50.286Z,14.35
2023-05-16T16:21:42.084Z,14.35
2023-05-16T16:24:27.012Z,14.29
2023-05-16T16:27:19.103Z,14.42
2023-05-16T16:30:05.423Z,14.15
2023-05-16T16:32:57.172Z,14.03
2023-05-16T16:35:42.812Z,14.01
2023-05-16T16:38:34.124Z,13.86
2023-05-16T16:41:26.101Z,14.07
2023-05-16T16:44:18.101Z,14.32
2023-05-16T16:47:09.336Z,14.10
2023-05-16T16:50:01.122Z,14.12
2023-05-16T16:52:52.107Z,13.90
2023-05-16T16:55:44.122Z,13.90
2023-05-16T16:58:36.330Z,14.18
2023-05-16T17:01:29.954Z,13.84
2023-05-16T17:04:22.104Z,13.89
2023-05-16T17:07:14.330Z,13.79
2023-05-16T17:10:00.825Z,13.72
2023-05-16T17:12:56.153Z,13.64
2023-05-16T17:15:48.132Z,13.41
2023-05-16T17:18:40.120Z,13.43
2023-05-16T17:21:25.299Z,13.42
2023-05-16T17:24:17.114Z,13.48
2023-05-16T17:27:02.666Z,13.61
2023-05-16T17:29:54.119Z,13.59
2023-05-16T17:32:46.142Z,13.42
2023-05-16T17:35:38.136Z,13.30
2023-05-16T17:38:30.112Z,13.33
2023-05-16T17:41:21.131Z,13.20
2023-05-16T17:44:06.952Z,13.09
2023-05-16T17:47:05.122Z,13.09
2023-05-16T17:49:50.018Z,13.21
2023-05-16T17:52:42.152Z,13.14
2023-05-16T17:55:27.422Z,13.15
2023-05-16T17:58:19.125Z,13.08
2023-05-16T18:01:09.046Z,12.98
2023-05-16T18:04:01.227Z,12.93
2023-05-16T18:06:48.197Z,12.82
2023-05-16T18:09:40.126Z,12.89
2023-05-16T18:12:25.282Z,12.79
2023-05-16T18:15:20.143Z,12.83
2023-05-16T18:18:05.039Z,12.74
2023-05-16T18:20:57.142Z,12.70
2023-05-16T18:23:42.110Z,12.71
2023-05-16T18:26:35.221Z,12.63
2023-05-16T18:29:21.381Z,12.60
2023-05-16T18:32:13.126Z,12.61
2023-05-16T18:35:04.146Z,12.58
2023-05-16T18:37:49.181Z,12.51
2023-05-16T18:40:41.158Z,12.46
2023-05-16T18:43:33.302Z,12.48
2023-05-16T18:46:31.154Z,12.51
2023-05-16T18:49:29.144Z,12.46
2023-05-16T18:52:14.142Z,12.30
2023-05-16T18:55:06.253Z,12.35
2023-05-16T18:57:58.139Z,12.34
2023-05-16T19:00:43.025Z,12.45
2023-05-16T19:03:34.243Z,12.23
2023-05-16T19:06:19.063Z,12.19
2023-05-16T19:09:10.154Z,12.25
2023-05-16T19:11:54.985Z,12.15
2023-05-16T19:14:46.156Z,12.23
2023-05-16T19:17:31.161Z,12.16
2023-05-16T19:20:23.274Z,12.24
2023-05-16T19:23:08.343Z,12.20
2023-05-16T19:26:00.158Z,12.15
2023-05-16T19:28:45.311Z,12.07
2023-05-16T19:31:37.165Z,12.10
2023-05-16T19:34:22.163Z,12.04
2023-05-16T19:37:15.157Z,12.05
2023-05-16T19:39:59.894Z,12.12
2023-05-16T19:42:51.152Z,12.04
2023-05-16T19:45:57.156Z,12.07
2023-05-16T19:48:49.316Z,12.04
2023-05-16T19:51:42.255Z,11.88
2023-05-16T19:54:34.144Z,11.86
2023-05-16T19:57:19.017Z,12.04
2023-05-16T20:00:12.156Z,11.87
2023-05-16T20:02:57.354Z,11.90
2023-05-16T20:05:49.205Z,11.92
2023-05-16T20:08:34.289Z,11.96
2023-05-16T20:11:26.172Z,11.82
2023-05-16T20:14:18.156Z,11.95
2023-05-16T20:17:03.279Z,11.86
2023-05-16T20:19:55.374Z,11.84
2023-05-16T20:22:48.165Z,11.73
2023-05-16T20:25:33.020Z,11.73
2023-05-16T20:28:24.164Z,11.72
2023-05-16T20:31:11.718Z,11.72
2023-05-16T20:34:03.185Z,11.69
2023-05-16T20:36:55.165Z,11.82
2023-05-16T20:39:40.338Z,11.71
2023-05-16T20:42:32.150Z,11.75
2023-05-16T20:45:37.173Z,11.80
2023-05-16T20:48:28.283Z,11.56
2023-05-16T20:51:13.626Z,11.61
2023-05-16T20:54:05.188Z,11.57
2023-05-16T20:56:50.291Z,11.38
2023-05-16T20:59:44.187Z,11.42
2023-05-16T21:02:29.606Z,11.37
2023-05-16T21:05:25.662Z,11.35
2023-05-16T21:08:18.167Z,11.40
2023-05-16T21:11:10.195Z,11.26
2023-05-16T21:14:02.173Z,11.37
2023-05-16T21:16:54.206Z,11.45
2023-05-16T21:19:45.211Z,11.39
2023-05-16T21:22:37.199Z,11.28
2023-05-16T21:25:28.439Z,11.30
2023-05-16T21:28:13.670Z,11.24
2023-05-16T21:31:05.213Z,11.19
2023-05-16T21:33:53.441Z,11.12
2023-05-16T21:36:45.184Z,11.13
2023-05-16T21:39:36.207Z,11.05
2023-05-16T21:42:21.284Z,11.01
2023-05-16T21:45:19.199Z,10.91
2023-05-16T21:48:10.527Z,10.91
2023-05-16T21:51:02.247Z,10.83
2023-05-16T21:53:47.035Z,10.88
2023-05-16T21:56:39.202Z,10.89
2023-05-16T21:59:30.203Z,10.83
2023-05-16T22:02:15.287Z,10.81
2023-05-16T22:05:06.264Z,10.79
2023-05-16T22:07:51.365Z,10.71
2023-05-16T22:10:43.255Z,10.80
2023-05-16T22:13:28.181Z,10.76
2023-05-16T22:16:19.215Z,10.79
2023-05-16T22:19:10.275Z,10.73
2023-05-16T22:21:55.102Z,10.69
2023-05-16T22:24:46.202Z,10.65
2023-05-16T22:27:37.209Z,10.62
2023-05-16T22:30:22.088Z,10.49
2023-05-16T22:33:13.253Z,10.47
2023-05-16T22:35:58.312Z,10.50
2023-05-16T22:38:49.203Z,10.32
2023-05-16T22:41:40.213Z,10.32
2023-05-16T22:44:25.230Z,10.33
2023-05-16T22:47:23.218Z,10.23
2023-05-16T22:50:08.411Z,10.29
2023-05-16T22:53:00.193Z,10.22
2023-05-16T22:55:51.223Z,10.12
2023-05-16T22:58:36.097Z,10.21
2023-05-16T23:01:28.237Z,10.21
2023-05-16T23:04:20.239Z,10.17
2023-05-16T23:07:05.534Z,9.99
2023-05-16T23:09:57.210Z,9.93
2023-05-16T23:12:42.204Z,9.97
2023-05-16T23:15:34.231Z,9.86
2023-05-16T23:18:19.306Z,9.71
2023-05-16T23:21:11.212Z,9.72
2023-05-16T23:24:02.229Z,9.71
2023-05-16T23:26:47.023Z,9.62
2023-05-16T23:29:38.231Z,9.58
2023-05-16T23:32:23.137Z,9.58
2023-05-16T23:35:15.230Z,9.63
2023-05-16T23:38:00.051Z,9.54
2023-05-16T23:40:51.230Z,9.51
2023-05-16T23:43:36.122Z,9.52
2023-05-16T23:46:34.224Z,9.65
2023-05-16T23:49:19.183Z,9.37
2023-05-16T23:52:12.235Z,9.54
2023-05-16T23:54:56.990Z,9.47
2023-05-16T23:57:48.232Z,9.38
